createdAt,value
2018-07-19T00:00:40.410Z,19.24
2018-07-19T00:01:40.430Z,19.27
2018-07-19T00:02:40.453Z,19.26
2018-07-19T00:03:40.478Z,19.31
2018-07-19T00:04:40.501Z,19.15
2018-07-19T00:05:40.525Z,19.30
2018-07-19T00:06:40.544Z,19.15
2018-07-19T00:07:40.571Z,19.11
2018-07-19T00:08:40.591Z,19.19
2018-07-19T00:09:40.617Z,19.18
2018-07-19T00:10:40.645Z,19.19
2018-07-19T00:11:40.662Z,19.21
2018-07-19T00:12:40.683Z,19.16
2018-07-19T00:13:40.709Z,19.00
2018-07-19T00:14:40.731Z,19.18
2018-07-19T00:15:40.755Z,18.99
2018-07-19T00:16:40.775Z,19.00
2018-07-19T00:17:40.798Z,19.09
2018-07-19T00:18:40.820Z,19.11
2018-07-19T00:19:40.843Z,19.09
2018-07-19T00:20:40.867Z,19.09
2018-07-19T00:21:40.889Z,19.04
2018-07-19T00:22:40.915Z,19.08
2018-07-19T00:23:40.937Z,19.08
2018-07-19T00:24:40.958Z,19.12
2018-07-19T00:25:40.981Z,19.04
2018-07-19T00:26:41.008Z,19.08
2018-07-19T00:27:41.029Z,19.04
2018-07-19T00:28:41.051Z,19.07
2018-07-19T00:29:41.075Z,19.02
2018-07-19T00:30:41.096Z,19.07
2018-07-19T00:31:41.118Z,19.07
2018-07-19T00:32:41.141Z,19.04
2018-07-19T00:33:41.164Z,18.93
2018-07-19T00:34:41.187Z,19.02
2018-07-19T00:35:41.211Z,19.00
2018-07-19T00:36:41.232Z,19.07
2018-07-19T00:37:41.258Z,19.08
2018-07-19T00:38:41.281Z,18.98
2018-07-19T00:39:41.301Z,18.95
2018-07-19T00:40:41.326Z,18.95
2018-07-19T00:41:41.349Z,18.95
2018-07-19T00:42:41.372Z,18.95
2018-07-19T00:43:41.395Z,18.90
2018-07-19T00:44:41.417Z,18.90
2018-07-19T00:45:41.441Z,18.86
2018-07-19T00:46:41.460Z,18.83
2018-07-19T00:47:41.485Z,18.89
2018-07-19T00:48:41.509Z,18.83
2018-07-19T00:49:41.529Z,18.81
2018-07-19T00:50:41.553Z,18.86
2018-07-19T00:51:41.574Z,18.81
2018-07-19T00:52:41.604Z,18.81
2018-07-19T00:53:41.622Z,18.80
2018-07-19T00:54:41.644Z,18.80
2018-07-19T00:55:41.667Z,18.74
2018-07-19T00:56:41.690Z,18.80
2018-07-19T00:57:42.064Z,18.70
2018-07-19T00:58:41.733Z,18.66
2018-07-19T00:59:41.756Z,18.73
2018-07-19T01:00:42.034Z,18.68
2018-07-19T01:01:41.802Z,18.66
2018-07-19T01:02:41.825Z,18.60
2018-07-19T01:03:42.051Z,18.63
2018-07-19T01:04:41.872Z,18.65
2018-07-19T01:05:41.896Z,18.62
2018-07-19T01:06:41.914Z,18.66
2018-07-19T01:07:41.940Z,18.55
2018-07-19T01:08:41.964Z,18.53
2018-07-19T01:09:41.987Z,18.59
2018-07-19T01:10:42.009Z,18.56
2018-07-19T01:11:42.028Z,18.58
2018-07-19T01:12:42.053Z,18.56
2018-07-19T01:13:42.077Z,18.53
2018-07-19T01:14:42.098Z,18.63
2018-07-19T01:15:42.122Z,18.55
2018-07-19T01:16:42.146Z,18.55
2018-07-19T01:17:42.164Z,18.50
2018-07-19T01:18:42.189Z,18.50
2018-07-19T01:19:42.209Z,18.50
2018-07-19T01:20:42.233Z,18.52
2018-07-19T01:21:42.255Z,18.47
2018-07-19T01:22:42.277Z,18.45
2018-07-19T01:23:42.304Z,18.43
2018-07-19T01:24:42.326Z,18.41
2018-07-19T01:25:42.345Z,18.31
2018-07-19T01:26:42.371Z,18.23
2018-07-19T01:27:42.394Z,18.29
2018-07-19T01:28:42.414Z,18.25
2018-07-19T01:29:42.438Z,18.25
2018-07-19T01:30:42.459Z,18.26
2018-07-19T01:31:42.481Z,18.35
2018-07-19T01:32:42.503Z,18.34
2018-07-19T01:33:42.525Z,18.23
2018-07-19T01:34:42.549Z,18.38
2018-07-19T01:35:42.570Z,18.44
2018-07-19T01:36:42.596Z,18.44
2018-07-19T01:37:42.619Z,18.41
2018-07-19T01:38:42.638Z,18.44
2018-07-19T01:39:42.661Z,18.35
2018-07-19T01:40:42.684Z,18.28
2018-07-19T01:41:42.708Z,18.33
2018-07-19T01:42:42.726Z,18.38
2018-07-19T01:43:42.753Z,18.29
2018-07-19T01:44:42.779Z,18.40
2018-07-19T01:45:42.796Z,18.41
2018-07-19T01:46:42.820Z,18.35
2018-07-19T01:47:42.840Z,18.44
2018-07-19T01:48:42.866Z,18.29
2018-07-19T01:49:42.886Z,18.34
2018-07-19T01:50:42.910Z,18.38
2018-07-19T01:51:42.932Z,18.34
2018-07-19T01:52:42.956Z,18.31
2018-07-19T01:53:42.976Z,18.31
2018-07-19T01:54:43.000Z,18.22
2018-07-19T01:55:43.021Z,18.25
2018-07-19T01:56:43.045Z,18.15
2018-07-19T01:57:43.072Z,18.13
2018-07-19T01:58:43.089Z,18.19
2018-07-19T01:59:43.112Z,18.23
2018-07-19T02:00:43.133Z,18.22
2018-07-19T02:01:43.156Z,18.15
2018-07-19T02:02:43.180Z,18.15
2018-07-19T02:03:43.204Z,18.11
2018-07-19T02:04:43.226Z,18.08
2018-07-19T02:05:43.248Z,18.07
2018-07-19T02:06:43.266Z,18.15
2018-07-19T02:07:43.292Z,18.07
2018-07-19T02:08:43.315Z,18.07
2018-07-19T02:09:43.364Z,17.98
2018-07-19T02:10:43.357Z,17.97
2018-07-19T02:11:43.380Z,17.92
2018-07-19T02:12:43.402Z,17.86
2018-07-19T02:13:43.427Z,17.80
2018-07-19T02:14:43.449Z,17.80
2018-07-19T02:15:43.468Z,17.71
2018-07-19T02:16:43.492Z,17.68
2018-07-19T02:17:43.517Z,17.76
2018-07-19T02:18:43.538Z,17.71
2018-07-19T02:19:43.561Z,17.71
2018-07-19T02:20:43.583Z,17.71
2018-07-19T02:21:43.603Z,17.80
2018-07-19T02:22:43.625Z,17.70
2018-07-19T02:23:43.647Z,17.65
2018-07-19T02:24:43.670Z,17.70
2018-07-19T02:25:43.694Z,17.65
2018-07-19T02:26:43.714Z,17.78
2018-07-19T02:27:43.736Z,17.60
2018-07-19T02:28:43.759Z,17.63
2018-07-19T02:29:43.783Z,17.63
2018-07-19T02:30:43.806Z,17.76
2018-07-19T02:31:43.825Z,17.63
2018-07-19T02:32:43.847Z,17.76
2018-07-19T02:33:43.869Z,17.68
2018-07-19T02:34:43.892Z,17.76
2018-07-19T02:35:43.913Z,17.71
2018-07-19T02:36:43.939Z,17.72
2018-07-19T02:37:43.958Z,17.71
2018-07-19T02:38:43.982Z,17.70
2018-07-19T02:39:44.005Z,17.74
2018-07-19T02:40:44.028Z,17.74
2018-07-19T02:41:44.050Z,17.72
2018-07-19T02:42:44.068Z,17.74
2018-07-19T02:43:44.096Z,17.74
2018-07-19T02:44:44.113Z,17.74
2018-07-19T02:45:44.138Z,17.72
2018-07-19T02:46:44.156Z,17.63
2018-07-19T02:47:44.181Z,17.64
2018-07-19T02:48:44.204Z,17.65
2018-07-19T02:49:44.224Z,17.60
2018-07-19T02:50:44.248Z,17.63
2018-07-19T02:51:44.268Z,17.65
2018-07-19T02:52:44.292Z,17.64
2018-07-19T02:53:44.314Z,17.59
2018-07-19T02:54:44.335Z,17.64
2018-07-19T02:55:44.358Z,17.51
2018-07-19T02:56:44.381Z,17.63
2018-07-19T02:57:44.403Z,17.67
2018-07-19T02:58:44.426Z,17.67
2018-07-19T02:59:44.444Z,17.59
2018-07-19T03:00:44.469Z,17.74
2018-07-19T03:01:44.490Z,17.67
2018-07-19T03:02:44.512Z,17.65
2018-07-19T03:03:44.534Z,17.63
2018-07-19T03:04:44.557Z,17.60
2018-07-19T03:05:44.577Z,17.64
2018-07-19T03:06:44.597Z,17.65
2018-07-19T03:07:44.649Z,17.63
2018-07-19T03:08:44.642Z,17.67
2018-07-19T03:09:44.665Z,17.65
2018-07-19T03:10:44.687Z,17.64
2018-07-19T03:11:44.707Z,17.64
2018-07-19T03:12:44.733Z,17.64
2018-07-19T03:13:44.753Z,17.63
2018-07-19T03:14:44.775Z,17.65
2018-07-19T03:15:44.799Z,17.57
2018-07-19T03:16:44.818Z,17.59
2018-07-19T03:17:44.843Z,17.60
2018-07-19T03:18:44.865Z,17.59
2018-07-19T03:19:44.884Z,17.63
2018-07-19T03:20:44.906Z,17.54
2018-07-19T03:21:44.931Z,17.60
2018-07-19T03:22:44.952Z,17.63
2018-07-19T03:23:44.974Z,17.68
2018-07-19T03:24:44.997Z,17.72
2018-07-19T03:25:45.019Z,17.72
2018-07-19T03:26:45.049Z,17.71
2018-07-19T03:27:45.061Z,17.76
2018-07-19T03:28:45.086Z,17.68
2018-07-19T03:29:45.109Z,17.74
2018-07-19T03:30:45.126Z,17.63
2018-07-19T03:31:45.149Z,17.71
2018-07-19T03:32:45.173Z,17.70
2018-07-19T03:33:45.193Z,17.68
2018-07-19T03:34:45.216Z,17.78
2018-07-19T03:35:45.241Z,17.79
2018-07-19T03:36:45.260Z,17.65
2018-07-19T03:37:45.280Z,17.57
2018-07-19T03:38:45.301Z,17.56
2018-07-19T03:39:45.326Z,17.65
2018-07-19T03:40:45.345Z,17.67
2018-07-19T03:41:45.370Z,17.59
2018-07-19T03:42:45.389Z,17.63
2018-07-19T03:43:45.413Z,17.59
2018-07-19T03:44:45.433Z,17.65
2018-07-19T03:45:45.459Z,17.54
2018-07-19T03:46:45.476Z,17.64
2018-07-19T03:47:45.498Z,17.59
2018-07-19T03:48:45.524Z,17.63
2018-07-19T03:49:45.545Z,17.60
2018-07-19T03:50:45.565Z,17.52
2018-07-19T03:51:45.589Z,17.65
2018-07-19T03:52:45.608Z,17.60
2018-07-19T03:53:45.634Z,17.52
2018-07-19T03:54:45.652Z,17.59
2018-07-19T03:55:45.674Z,17.54
2018-07-19T03:56:45.697Z,17.60
2018-07-19T03:57:45.724Z,17.59
2018-07-19T03:58:45.742Z,17.59
2018-07-19T03:59:45.764Z,17.59
2018-07-19T04:00:45.785Z,17.51
2018-07-19T04:01:45.811Z,17.48
2018-07-19T04:02:45.829Z,17.65
2018-07-19T04:03:45.853Z,17.54
2018-07-19T04:04:45.876Z,17.52
2018-07-19T04:05:45.897Z,17.57
2018-07-19T04:06:45.919Z,17.44
2018-07-19T04:07:45.938Z,17.46
2018-07-19T04:08:45.964Z,17.36
2018-07-19T04:09:45.986Z,17.42
2018-07-19T04:10:46.008Z,17.29
2018-07-19T04:11:46.026Z,17.24
2018-07-19T04:12:46.049Z,17.24
2018-07-19T04:13:46.070Z,17.22
2018-07-19T04:14:46.093Z,17.15
2018-07-19T04:15:46.117Z,17.19
2018-07-19T04:16:46.136Z,17.29
2018-07-19T04:17:46.162Z,17.41
2018-07-19T04:18:46.181Z,17.38
2018-07-19T04:19:46.202Z,17.49
2018-07-19T04:20:46.224Z,17.56
2018-07-19T04:21:46.246Z,17.59
2018-07-19T04:22:46.266Z,17.63
2018-07-19T04:23:46.294Z,17.60
2018-07-19T04:24:46.311Z,17.52
2018-07-19T04:25:46.338Z,17.67
2018-07-19T04:26:46.357Z,17.57
2018-07-19T04:27:46.379Z,17.65
2018-07-19T04:28:46.399Z,17.59
2018-07-19T04:29:46.423Z,17.65
2018-07-19T04:30:46.443Z,17.63
2018-07-19T04:31:46.468Z,17.60
2018-07-19T04:32:46.488Z,17.60
2018-07-19T04:33:46.512Z,17.52
2018-07-19T04:34:46.533Z,17.59
2018-07-19T04:35:46.556Z,17.57
2018-07-19T04:36:46.578Z,17.54
2018-07-19T04:37:46.601Z,17.59
2018-07-19T04:38:46.619Z,17.59
2018-07-19T04:39:46.643Z,17.65
2018-07-19T04:40:46.667Z,17.59
2018-07-19T04:41:46.685Z,17.63
2018-07-19T04:42:46.706Z,17.70
2018-07-19T04:43:46.730Z,17.74
2018-07-19T04:44:46.954Z,17.78
2018-07-19T04:45:46.777Z,17.72
2018-07-19T04:46:46.795Z,17.68
2018-07-19T04:47:46.817Z,17.60
2018-07-19T04:48:46.839Z,17.64
2018-07-19T04:49:46.865Z,17.68
2018-07-19T04:50:46.886Z,17.74
2018-07-19T04:51:46.908Z,17.76
2018-07-19T04:52:46.928Z,17.68
2018-07-19T04:53:46.955Z,17.72
2018-07-19T04:54:46.973Z,17.72
2018-07-19T04:55:46.995Z,17.85
2018-07-19T04:56:47.020Z,17.76
2018-07-19T04:57:47.042Z,17.80
2018-07-19T04:58:47.061Z,17.92
2018-07-19T04:59:47.082Z,17.97
2018-07-19T05:00:47.107Z,17.94
2018-07-19T05:01:47.157Z,17.97
2018-07-19T05:02:47.152Z,17.98
2018-07-19T05:03:47.178Z,18.05
2018-07-19T05:04:47.197Z,18.10
2018-07-19T05:05:47.217Z,18.07
2018-07-19T05:06:47.241Z,18.03
2018-07-19T05:07:47.260Z,18.05
2018-07-19T05:08:47.286Z,18.05
2018-07-19T05:09:47.307Z,18.07
2018-07-19T05:10:47.327Z,18.15
2018-07-19T05:11:47.350Z,18.25
2018-07-19T05:12:47.374Z,18.33
2018-07-19T05:13:47.398Z,18.22
2018-07-19T05:14:47.418Z,18.31
2018-07-19T05:15:47.439Z,18.31
2018-07-19T05:16:47.464Z,18.38
2018-07-19T05:17:47.486Z,18.43
2018-07-19T05:18:47.510Z,18.45
2018-07-19T05:19:47.534Z,18.43
2018-07-19T05:20:47.554Z,18.45
2018-07-19T05:21:47.577Z,18.50
2018-07-19T05:22:47.596Z,18.45
2018-07-19T05:23:47.626Z,18.45
2018-07-19T05:24:47.642Z,18.41
2018-07-19T05:25:47.665Z,18.50
2018-07-19T05:26:47.686Z,18.53
2018-07-19T05:27:47.711Z,18.55
2018-07-19T05:28:47.734Z,18.56
2018-07-19T05:29:47.756Z,18.62
2018-07-19T05:30:47.778Z,18.66
2018-07-19T05:31:47.803Z,18.63
2018-07-19T05:32:47.825Z,18.75
2018-07-19T05:33:47.848Z,18.80
2018-07-19T05:34:47.870Z,18.81
2018-07-19T05:35:47.893Z,18.77
2018-07-19T05:36:47.917Z,18.88
2018-07-19T05:37:47.937Z,18.90
2018-07-19T05:38:47.958Z,18.86
2018-07-19T05:39:47.985Z,18.96
2018-07-19T05:40:48.008Z,18.96
2018-07-19T05:41:48.029Z,19.04
2018-07-19T05:42:48.050Z,19.09
2018-07-19T05:43:48.073Z,19.12
2018-07-19T05:44:48.096Z,19.22
2018-07-19T05:45:48.119Z,19.30
2018-07-19T05:46:48.142Z,19.22
2018-07-19T05:47:48.168Z,19.26
2018-07-19T05:48:48.191Z,19.30
2018-07-19T05:49:48.213Z,19.29
2018-07-19T05:50:48.237Z,19.49
2018-07-19T05:51:48.258Z,19.69
2018-07-19T05:52:48.279Z,19.76
2018-07-19T05:53:48.306Z,19.92
2018-07-19T05:54:48.328Z,19.99
2018-07-19T05:55:48.349Z,20.09
2018-07-19T05:56:48.373Z,20.22
2018-07-19T05:57:48.398Z,20.39
2018-07-19T05:58:48.422Z,20.59
2018-07-19T05:59:48.445Z,20.82
2018-07-19T06:00:48.468Z,20.92
2018-07-19T06:01:48.492Z,21.05
2018-07-19T06:02:48.517Z,21.02
2018-07-19T06:03:48.540Z,21.07
2018-07-19T06:04:48.561Z,21.06
2018-07-19T06:05:48.586Z,21.14
2018-07-19T06:06:48.611Z,21.32
2018-07-19T06:07:48.634Z,21.22
2018-07-19T06:08:48.662Z,21.18
2018-07-19T06:09:48.685Z,21.09
2018-07-19T06:10:48.710Z,21.09
2018-07-19T06:11:48.735Z,20.93
2018-07-19T06:12:48.759Z,21.02
2018-07-19T06:13:48.788Z,20.88
2018-07-19T06:14:48.807Z,20.96
2018-07-19T06:15:48.836Z,20.81
2018-07-19T06:16:48.859Z,20.80
2018-07-19T06:17:48.882Z,20.78
2018-07-19T06:18:48.910Z,20.92
2018-07-19T06:19:48.935Z,21.07
2018-07-19T06:20:48.959Z,21.12
2018-07-19T06:21:48.983Z,21.09
2018-07-19T06:22:49.011Z,21.07
2018-07-19T06:23:49.035Z,21.05
2018-07-19T06:24:49.058Z,21.02
2018-07-19T06:25:49.085Z,20.96
2018-07-19T06:26:49.111Z,21.05
2018-07-19T06:27:49.133Z,21.07
2018-07-19T06:28:49.161Z,21.15
2018-07-19T06:29:49.187Z,21.07
2018-07-19T06:30:49.209Z,21.18
2018-07-19T06:31:49.236Z,21.06
2018-07-19T06:32:49.263Z,21.20
2018-07-19T06:33:49.291Z,21.30
2018-07-19T06:34:49.309Z,21.51
2018-07-19T06:35:49.384Z,21.70
2018-07-19T06:36:49.363Z,21.85
2018-07-19T06:37:49.385Z,21.67
2018-07-19T06:38:49.410Z,21.60
2018-07-19T06:39:49.435Z,21.57
2018-07-19T06:40:49.463Z,21.43
2018-07-19T06:41:49.490Z,21.27
2018-07-19T06:42:49.512Z,21.36
2018-07-19T06:43:49.540Z,21.40
2018-07-19T06:44:49.564Z,21.42
2018-07-19T06:45:49.589Z,21.39
2018-07-19T06:46:49.616Z,21.35
2018-07-19T06:47:49.640Z,21.29
2018-07-19T06:48:49.668Z,21.30
2018-07-19T06:49:49.691Z,21.42
2018-07-19T06:50:49.717Z,21.36
2018-07-19T06:51:49.744Z,21.40
2018-07-19T06:52:49.770Z,21.54
2018-07-19T06:53:49.795Z,21.55
2018-07-19T06:54:49.823Z,21.57
2018-07-19T06:55:49.846Z,21.75
2018-07-19T06:56:49.868Z,21.77
2018-07-19T06:57:49.894Z,21.72
2018-07-19T06:58:49.918Z,21.76
2018-07-19T06:59:49.947Z,21.79
2018-07-19T07:00:49.972Z,21.77
2018-07-19T07:01:49.997Z,21.85
2018-07-19T07:02:50.024Z,21.89
2018-07-19T07:03:50.045Z,21.82
2018-07-19T07:04:50.074Z,21.85
2018-07-19T07:05:50.097Z,21.96
2018-07-19T07:06:50.121Z,22.18
2018-07-19T07:07:50.146Z,22.23
2018-07-19T07:08:50.216Z,22.59
2018-07-19T07:09:50.200Z,22.70
2018-07-19T07:10:50.225Z,22.65
2018-07-19T07:11:50.247Z,22.70
2018-07-19T07:12:50.275Z,22.66
2018-07-19T07:13:50.302Z,22.72
2018-07-19T07:14:50.334Z,22.70
2018-07-19T07:15:50.349Z,22.99
2018-07-19T07:16:50.378Z,23.00
2018-07-19T07:17:50.402Z,23.09
2018-07-19T07:18:50.430Z,23.18
2018-07-19T07:19:50.452Z,23.17
2018-07-19T07:20:50.528Z,23.31
2018-07-19T07:21:50.507Z,23.43
2018-07-19T07:22:50.530Z,23.50
2018-07-19T07:23:50.558Z,23.37
2018-07-19T07:24:50.584Z,23.41
2018-07-19T07:25:50.613Z,23.39
2018-07-19T07:26:50.642Z,23.43
2018-07-19T07:27:50.663Z,23.51
2018-07-19T07:28:50.691Z,23.66
2018-07-19T07:29:50.720Z,23.88
2018-07-19T07:30:50.748Z,24.02
2018-07-19T07:31:50.778Z,24.01
2018-07-19T07:32:50.801Z,23.86
2018-07-19T07:33:50.828Z,23.76
2018-07-19T07:34:50.853Z,23.87
2018-07-19T07:35:50.887Z,23.88
2018-07-19T07:36:50.988Z,23.92
2018-07-19T07:37:50.939Z,24.06
2018-07-19T07:38:50.998Z,24.16
2018-07-19T07:39:50.991Z,24.17
2018-07-19T07:40:51.020Z,24.33
2018-07-19T07:41:51.048Z,24.29
2018-07-19T07:42:51.075Z,24.14
2018-07-19T07:43:51.103Z,24.36
2018-07-19T07:44:51.130Z,24.21
2018-07-19T07:45:51.159Z,24.30
2018-07-19T07:46:51.185Z,24.38
2018-07-19T07:47:51.216Z,24.32
2018-07-19T07:48:51.241Z,24.38
2018-07-19T07:49:51.273Z,24.29
2018-07-19T07:50:51.299Z,24.32
2018-07-19T07:51:51.329Z,24.24
2018-07-19T07:52:51.353Z,24.39
2018-07-19T07:53:51.384Z,24.29
2018-07-19T07:54:51.408Z,24.29
2018-07-19T07:55:51.441Z,24.17
2018-07-19T07:56:51.467Z,24.32
2018-07-19T07:57:51.493Z,24.38
2018-07-19T07:58:51.522Z,24.40
2018-07-19T07:59:51.547Z,24.47
2018-07-19T08:00:51.577Z,24.35
2018-07-19T08:01:51.603Z,24.39
2018-07-19T08:02:51.630Z,24.28
2018-07-19T08:03:51.659Z,24.30
2018-07-19T08:04:51.715Z,24.36
2018-07-19T08:05:51.712Z,24.35
2018-07-19T08:06:51.742Z,24.39
2018-07-19T08:07:51.768Z,24.51
2018-07-19T08:08:51.815Z,24.50
2018-07-19T08:09:51.824Z,24.65
2018-07-19T08:10:51.848Z,24.73
2018-07-19T08:11:51.879Z,24.84
2018-07-19T08:12:51.907Z,24.60
2018-07-19T08:13:51.931Z,24.53
2018-07-19T08:14:51.960Z,24.53
2018-07-19T08:15:52.023Z,24.68
2018-07-19T08:16:52.040Z,24.69
2018-07-19T08:17:52.052Z,24.57
2018-07-19T08:18:52.068Z,24.63
2018-07-19T08:19:52.098Z,24.55
2018-07-19T08:20:52.127Z,24.60
2018-07-19T08:21:52.155Z,24.69
2018-07-19T08:22:52.177Z,24.85
2018-07-19T08:23:52.205Z,24.80
2018-07-19T08:24:52.521Z,24.91
2018-07-19T08:25:52.262Z,24.98
2018-07-19T08:26:52.286Z,25.04
2018-07-19T08:27:52.318Z,24.96
2018-07-19T08:28:52.343Z,25.03
2018-07-19T08:29:52.369Z,24.91
2018-07-19T08:30:52.396Z,24.93
2018-07-19T08:31:52.423Z,25.07
2018-07-19T08:32:52.454Z,25.08
2018-07-19T08:33:52.486Z,25.06
2018-07-19T08:34:52.509Z,25.13
2018-07-19T08:35:52.629Z,25.16
2018-07-19T08:36:52.565Z,25.23
2018-07-19T08:37:52.591Z,25.21
2018-07-19T08:38:52.616Z,25.32
2018-07-19T08:39:52.644Z,25.32
2018-07-19T08:40:52.672Z,25.28
2018-07-19T08:41:52.736Z,25.18
2018-07-19T08:42:52.731Z,25.11
2018-07-19T08:43:52.754Z,25.14
2018-07-19T08:44:52.785Z,25.08
2018-07-19T08:45:52.810Z,24.76
2018-07-19T08:46:52.837Z,24.55
2018-07-19T08:47:52.865Z,24.66
2018-07-19T08:48:52.895Z,24.88
2018-07-19T08:49:52.920Z,24.96
2018-07-19T08:50:53.852Z,25.01
2018-07-19T08:51:52.981Z,25.11
2018-07-19T08:52:53.003Z,25.25
2018-07-19T08:53:53.032Z,25.16
2018-07-19T08:54:53.059Z,25.16
2018-07-19T08:55:53.085Z,25.31
2018-07-19T08:56:53.116Z,25.46
2018-07-19T08:57:53.145Z,25.41
2018-07-19T08:58:53.170Z,25.25
2018-07-19T08:59:53.201Z,25.28
2018-07-19T09:00:53.227Z,25.36
2018-07-19T09:01:53.254Z,25.48
2018-07-19T09:02:53.281Z,25.62
2018-07-19T09:03:53.309Z,25.43
2018-07-19T09:04:53.334Z,25.58
2018-07-19T09:05:53.363Z,25.65
2018-07-19T09:06:53.393Z,25.68
2018-07-19T09:07:53.420Z,25.90
2018-07-19T09:08:53.449Z,25.80
2018-07-19T09:09:53.477Z,25.70
2018-07-19T09:10:53.504Z,25.88
2018-07-19T09:11:53.531Z,25.98
2018-07-19T09:12:53.560Z,25.88
2018-07-19T09:13:53.588Z,25.96
2018-07-19T09:14:53.612Z,25.83
2018-07-19T09:15:53.645Z,25.88
2018-07-19T09:16:53.672Z,25.87
2018-07-19T09:17:53.700Z,25.99
2018-07-19T09:18:53.727Z,25.93
2018-07-19T09:19:53.758Z,25.91
2018-07-19T09:20:53.783Z,25.81
2018-07-19T09:21:53.813Z,25.77
2018-07-19T09:22:53.852Z,25.87
2018-07-19T09:23:53.866Z,25.77
2018-07-19T09:24:53.893Z,25.73
2018-07-19T09:25:53.921Z,25.78
2018-07-19T09:26:53.960Z,25.90
2018-07-19T09:27:53.978Z,25.70
2018-07-19T09:28:54.007Z,25.48
2018-07-19T09:29:54.038Z,25.25
2018-07-19T09:30:54.064Z,25.18
2018-07-19T09:31:54.089Z,25.11
2018-07-19T09:32:54.117Z,25.04
2018-07-19T09:33:54.145Z,25.17
2018-07-19T09:34:54.172Z,25.08
2018-07-19T09:35:54.202Z,24.98
2018-07-19T09:36:54.229Z,25.01
2018-07-19T09:37:54.606Z,24.92
2018-07-19T09:38:54.282Z,25.06
2018-07-19T09:39:54.310Z,25.16
2018-07-19T09:40:54.341Z,25.31
2018-07-19T09:41:54.406Z,25.46
2018-07-19T09:42:54.392Z,25.69
2018-07-19T09:43:54.428Z,25.84
2018-07-19T09:44:54.451Z,25.99
2018-07-19T09:45:54.477Z,26.21
2018-07-19T09:46:54.505Z,26.09
2018-07-19T09:47:54.534Z,26.16
2018-07-19T09:48:54.594Z,26.05
2018-07-19T09:49:54.587Z,25.99
2018-07-19T09:50:54.614Z,25.88
2018-07-19T09:51:54.643Z,25.90
2018-07-19T09:52:54.669Z,25.84
2018-07-19T09:53:54.846Z,25.95
2018-07-19T09:54:54.724Z,25.90
2018-07-19T09:55:54.832Z,25.70
2018-07-19T09:56:54.777Z,25.54
2018-07-19T09:57:54.805Z,25.59
2018-07-19T09:58:54.832Z,25.40
2018-07-19T09:59:54.861Z,25.33
2018-07-19T10:00:54.890Z,25.38
2018-07-19T10:01:54.973Z,25.40
2018-07-19T10:02:54.945Z,25.41
2018-07-19T10:03:54.969Z,25.55
2018-07-19T10:04:54.997Z,25.85
2018-07-19T10:05:55.030Z,25.75
2018-07-19T10:06:55.055Z,25.77
2018-07-19T10:07:55.084Z,25.72
2018-07-19T10:08:55.112Z,25.65
2018-07-19T10:09:55.166Z,25.84
2018-07-19T10:10:55.417Z,26.07
2018-07-19T10:11:55.197Z,26.31
2018-07-19T10:12:55.218Z,26.36
2018-07-19T10:13:55.245Z,26.36
2018-07-19T10:14:55.273Z,26.31
2018-07-19T10:15:55.302Z,26.41
2018-07-19T10:16:55.329Z,26.45
2018-07-19T10:17:55.354Z,26.55
2018-07-19T10:18:55.381Z,26.62
2018-07-19T10:19:55.409Z,26.53
2018-07-19T10:20:55.437Z,26.21
2018-07-19T10:21:55.465Z,26.06
2018-07-19T10:22:55.493Z,25.98
2018-07-19T10:23:55.524Z,25.83
2018-07-19T10:24:55.547Z,25.83
2018-07-19T10:25:55.578Z,25.91
2018-07-19T10:26:55.605Z,26.21
2018-07-19T10:27:55.629Z,26.41
2018-07-19T10:28:55.659Z,26.41
2018-07-19T10:29:55.690Z,26.59
2018-07-19T10:30:55.714Z,26.59
2018-07-19T10:31:55.770Z,26.71
2018-07-19T10:32:55.768Z,26.73
2018-07-19T10:33:55.795Z,26.89
2018-07-19T10:34:55.823Z,26.97
2018-07-19T10:35:55.854Z,26.84
2018-07-19T10:36:55.884Z,26.68
2018-07-19T10:37:55.908Z,26.75
2018-07-19T10:38:55.937Z,26.51
2018-07-19T10:39:55.965Z,26.51
2018-07-19T10:40:55.990Z,26.47
2018-07-19T10:41:56.021Z,26.41
2018-07-19T10:42:56.339Z,26.48
2018-07-19T10:43:56.072Z,26.58
2018-07-19T10:44:56.103Z,26.60
2018-07-19T10:45:56.136Z,26.65
2018-07-19T10:46:56.158Z,26.55
2018-07-19T10:47:56.186Z,26.02
2018-07-19T10:48:56.214Z,26.15
2018-07-19T10:49:56.241Z,25.90
2018-07-19T10:50:56.268Z,25.58
2018-07-19T10:51:56.328Z,25.65
2018-07-19T10:52:56.474Z,25.75
2018-07-19T10:53:56.350Z,25.81
2018-07-19T10:54:56.379Z,25.87
2018-07-19T10:55:56.406Z,25.88
2018-07-19T10:56:56.436Z,25.99
2018-07-19T10:57:56.464Z,26.03
2018-07-19T10:58:56.491Z,26.21
2018-07-19T10:59:56.518Z,26.29
2018-07-19T11:00:56.544Z,26.36
2018-07-19T11:01:56.574Z,26.41
2018-07-19T11:02:56.598Z,26.45
2018-07-19T11:03:56.628Z,26.52
2018-07-19T11:04:56.654Z,26.45
2018-07-19T11:05:56.685Z,26.56
2018-07-19T11:06:56.711Z,26.66
2018-07-19T11:07:56.739Z,26.68
2018-07-19T11:08:56.764Z,26.73
2018-07-19T11:09:56.869Z,26.19
2018-07-19T11:10:56.827Z,25.95
2018-07-19T11:11:56.847Z,26.06
2018-07-19T11:12:56.876Z,26.19
2018-07-19T11:13:56.903Z,26.26
2018-07-19T11:14:56.929Z,26.37
2018-07-19T11:15:56.957Z,26.36
2018-07-19T11:16:56.987Z,26.44
2018-07-19T11:17:57.013Z,26.66
2018-07-19T11:18:57.040Z,26.58
2018-07-19T11:19:57.070Z,26.63
2018-07-19T11:20:57.098Z,26.52
2018-07-19T11:21:57.177Z,26.48
2018-07-19T11:22:57.296Z,26.55
2018-07-19T11:23:57.181Z,26.71
2018-07-19T11:24:57.207Z,26.60
2018-07-19T11:25:57.235Z,26.43
2018-07-19T11:26:57.263Z,26.58
2018-07-19T11:27:57.294Z,26.71
2018-07-19T11:28:57.324Z,26.47
2018-07-19T11:29:57.347Z,26.55
2018-07-19T11:30:57.373Z,26.56
2018-07-19T11:31:57.401Z,26.73
2018-07-19T11:32:57.432Z,27.05
2018-07-19T11:33:57.460Z,27.36
2018-07-19T11:34:57.488Z,27.27
2018-07-19T11:35:57.515Z,27.33
2018-07-19T11:36:57.541Z,27.45
2018-07-19T11:37:57.573Z,27.54
2018-07-19T11:38:57.600Z,27.58
2018-07-19T11:39:57.631Z,27.44
2018-07-19T11:40:57.657Z,27.45
2018-07-19T11:41:57.684Z,27.33
2018-07-19T11:42:57.713Z,27.32
2018-07-19T11:43:57.741Z,27.35
2018-07-19T11:44:57.769Z,27.11
2018-07-19T11:45:57.802Z,26.84
2018-07-19T11:46:57.823Z,26.88
2018-07-19T11:47:57.854Z,26.90
2018-07-19T11:48:57.884Z,26.83
2018-07-19T11:49:57.962Z,26.83
2018-07-19T11:50:57.936Z,26.88
2018-07-19T11:51:57.965Z,26.95
2018-07-19T11:52:57.993Z,27.00
2018-07-19T11:53:58.025Z,27.05
2018-07-19T11:54:58.052Z,27.12
2018-07-19T11:55:58.081Z,26.93
2018-07-19T11:56:58.106Z,26.75
2018-07-19T11:57:58.488Z,26.97
2018-07-19T11:58:58.165Z,27.07
2018-07-19T11:59:58.191Z,27.20
2018-07-19T12:00:58.219Z,27.22
2018-07-19T12:01:58.251Z,27.32
2018-07-19T12:02:58.277Z,27.36
2018-07-19T12:03:58.304Z,27.35
2018-07-19T12:04:58.336Z,27.26
2018-07-19T12:05:58.361Z,27.22
2018-07-19T12:06:58.390Z,27.27
2018-07-19T12:07:58.418Z,27.33
2018-07-19T12:08:58.447Z,27.48
2018-07-19T12:09:58.478Z,27.36
2018-07-19T12:10:58.504Z,27.49
2018-07-19T12:11:58.531Z,27.30
2018-07-19T12:12:58.562Z,27.27
2018-07-19T12:13:58.654Z,26.85
2018-07-19T12:14:58.618Z,26.92
2018-07-19T12:15:58.648Z,26.99
2018-07-19T12:16:58.678Z,27.20
2018-07-19T12:17:58.703Z,27.32
2018-07-19T12:18:58.731Z,27.48
2018-07-19T12:19:58.760Z,27.45
2018-07-19T12:20:58.786Z,27.47
2018-07-19T12:21:58.815Z,27.52
2018-07-19T12:22:58.871Z,27.67
2018-07-19T12:23:58.872Z,27.78
2018-07-19T12:24:58.902Z,27.92
2018-07-19T12:25:58.930Z,27.98
2018-07-19T12:26:58.959Z,28.05
2018-07-19T12:27:58.984Z,28.19
2018-07-19T12:28:59.013Z,28.05
2018-07-19T12:29:59.042Z,28.19
2018-07-19T12:30:59.072Z,28.29
2018-07-19T12:31:59.108Z,28.29
2018-07-19T12:32:59.132Z,28.30
2018-07-19T12:33:59.161Z,28.26
2018-07-19T12:34:59.185Z,28.10
2018-07-19T12:35:59.215Z,28.02
2018-07-19T12:36:59.292Z,27.96
2018-07-19T12:37:59.278Z,28.01
2018-07-19T12:38:59.302Z,28.07
2018-07-19T12:39:59.332Z,28.11
2018-07-19T12:40:59.360Z,28.23
2018-07-19T12:41:59.391Z,28.33
2018-07-19T12:42:59.417Z,28.38
2018-07-19T12:43:59.444Z,28.32
2018-07-19T12:44:59.476Z,28.39
2018-07-19T12:45:59.505Z,28.02
2018-07-19T12:46:59.530Z,27.96
2018-07-19T12:47:59.562Z,27.54
2018-07-19T12:48:59.604Z,27.58
2018-07-19T12:49:59.618Z,27.70
2018-07-19T12:50:59.645Z,27.87
2018-07-19T12:51:59.680Z,28.11
2018-07-19T12:52:59.705Z,28.26